Time,TemperatureF,DewpointF,PressureIn,WindDirection,WindDirectionDegrees,WindSpeedMPH,WindSpeedGustMPH,Humidity,HourlyPrecipIn,Conditions,Clouds,dailyrainin,SoftwareType,DateUTC
2013-07-08 01:01:00,73.0,58.0,29.87,West,267,1.0,12.0,60,0.00,,,0.00,,2013-07-08 05:01:00,
2013-07-08 01:12:00,73.0,58.0,29.87,West,267,1.0,12.0,60,0.00,,,0.00,,2013-07-08 05:12:00,
2013-07-08 02:34:00,74.0,57.0,29.86,NW,321,6.0,9.0,55,0.00,,,0.00,,2013-07-08 06:34:00,
2013-07-08 02:43:00,74.0,57.0,29.86,NW,321,6.0,9.0,55,0.00,,,0.00,,2013-07-08 06:43:00,
2013-07-08 02:53:00,75.0,60.0,29.85,NNW,340,6.0,10.0,59,0.00,,,0.00,,2013-07-08 06:53:00,
2013-07-08 03:02:00,74.0,57.0,29.85,NNW,348,5.0,9.0,56,0.00,,,0.00,,2013-07-08 07:02:00,
2013-07-08 03:12:00,74.0,57.0,29.85,NNW,348,5.0,9.0,56,0.00,,,0.00,,2013-07-08 07:12:00,
2013-07-08 03:22:00,74.0,57.0,29.85,NNW,338,7.0,9.0,55,0.00,,,0.00,,2013-07-08 07:22:00,
2013-07-08 03:34:00,74.0,57.0,29.85,NNW,337,7.0,9.0,55,0.00,,,0.00,,2013-07-08 07:34:00,
2013-07-08 03:44:00,74.0,57.0,29.85,NNW,337,7.0,9.0,55,0.00,,,0.00,,2013-07-08 07:44:00,
2013-07-08 03:53:00,74.0,56.0,29.85,North,355,4.0,9.0,54,0.00,,,0.00,,2013-07-08 07:53:00,
2013-07-08 04:02:00,75.0,57.0,29.86,North,349,4.0,9.0,54,0.00,,,0.00,,2013-07-08 08:02:00,
2013-07-08 04:12:00,75.0,57.0,29.86,North,349,4.0,9.0,54,0.00,,,0.00,,2013-07-08 08:12:00,
2013-07-08 04:22:00,74.0,56.0,29.87,North,350,4.0,6.0,53,0.00,,,0.00,,2013-07-08 08:22:00,
2013-07-08 04:33:00,74.0,56.0,29.87,NNE,15,4.0,9.0,53,0.00,,,0.00,,2013-07-08 08:33:00,
2013-07-08 04:42:00,74.0,56.0,29.87,NNE,15,4.0,9.0,53,0.00,,,0.00,,2013-07-08 08:42:00,
2013-07-08 04:53:00,74.0,58.0,29.88,NE,38,7.0,11.0,58,0.00,,,0.00,,2013-07-08 08:53:00,
2013-07-08 05:02:00,74.0,60.0,29.88,NNE,14,6.0,14.0,61,0.00,,,0.00,,2013-07-08 09:02:00,
2013-07-08 05:11:00,74.0,60.0,29.88,NNE,14,6.0,14.0,61,0.00,,,0.00,,2013-07-08 09:11:00,
2013-07-08 05:22:00,73.0,60.0,29.88,NNE,21,4.0,13.0,63,0.00,,,0.00,,2013-07-08 09:22:00,
2013-07-08 05:34:00,73.0,60.0,29.89,NNE,18,7.0,12.0,63,0.00,,,0.00,,2013-07-08 09:34:00,
2013-07-08 05:43:00,73.0,60.0,29.89,NNE,18,7.0,12.0,63,0.00,,,0.00,,2013-07-08 09:43:00,
2013-07-08 05:53:00,73.0,59.0,29.89,NNE,19,9.0,13.0,62,0.00,,,0.00,,2013-07-08 09:53:00,
2013-07-08 06:02:00,72.0,57.0,29.89,North,10,5.0,12.0,60,0.00,,,0.00,,2013-07-08 10:02:00,
2013-07-08 06:11:00,72.0,57.0,29.89,North,10,5.0,12.0,60,0.00,,,0.00,,2013-07-08 10:11:00,
2013-07-08 06:22:00,71.0,57.0,29.91,North,350,3.0,15.0,61,0.00,,,0.00,,2013-07-08 10:22:00,
2013-07-08 06:34:00,69.0,56.0,29.91,NNW,343,7.0,11.0,63,0.01,,,0.01,,2013-07-08 10:34:00,
2013-07-08 06:43:00,69.0,56.0,29.91,NNW,343,7.0,11.0,63,0.01,,,0.01,,2013-07-08 10:43:00,
2013-07-08 06:53:00,66.0,52.0,29.91,North,360,6.0,10.0,60,0.01,,,0.01,,2013-07-08 10:53:00,
2013-07-08 07:02:00,66.0,53.0,29.92,North,355,6.0,13.0,63,0.01,,,0.01,,2013-07-08 11:02:00,
2013-07-08 07:11:00,66.0,53.0,29.92,North,355,6.0,13.0,63,0.01,,,0.01,,2013-07-08 11:11:00,
2013-07-08 07:23:00,65.0,52.0,29.92,NNE,14,7.0,11.0,63,0.01,,,0.01,,2013-07-08 11:23:00,
2013-07-08 07:33:00,65.0,53.0,29.91,NNE,18,12.0,21.0,64,0.01,,,0.02,,2013-07-08 11:33:00,
2013-07-08 07:43:00,65.0,53.0,29.91,NNE,18,12.0,21.0,64,0.01,,,0.02,,2013-07-08 11:43:00,
2013-07-08 07:53:00,65.0,52.0,29.92,North,355,7.0,14.0,63,0.03,,,0.04,,2013-07-08 11:53:00,
2013-07-08 08:02:00,63.0,47.0,29.93,North,5,5.0,9.0,55,0.03,,,0.04,,2013-07-08 12:02:00,
2013-07-08 08:12:00,63.0,47.0,29.93,North,5,5.0,9.0,55,0.03,,,0.04,,2013-07-08 12:12:00,
2013-07-08 08:22:00,64.0,49.0,29.93,North,5,4.0,11.0,59,0.03,,,0.04,,2013-07-08 12:22:00,
2013-07-08 09:33:00,63.0,48.0,29.95,NNE,25,1.0,11.0,58,0.00,,,0.04,,2013-07-08 13:33:00,
2013-07-08 22:32:00,-999.0,-99.9,30.02,NE,36,3.0,4.0,53,0.00,,,-99.99,,2013-07-09 02:32:00,
2013-07-08 23:02:00,64.0,52.0,30.02,NE,36,1.0,5.0,65,0.00,,,-99.99,,2013-07-09 03:02:00,
2013-07-08 23:17:00,64.0,52.0,30.02,NE,36,0.0,0.0,65,0.00,,,-99.99,,2013-07-09 03:17:00,
2013-07-08 23:45:00,64.0,52.0,30.02,NE,36,1.0,4.0,65,0.00,,,-99.99,,2013-07-09 03:45:00,
2013-07-08 23:56:00,64.0,52.0,30.02,NE,36,1.0,4.0,65,0.00,,,-99.99,,2013-07-09 03:56:00,